Pompano Beach, FL

9:54 PM EST on December 05, 2016 (GMT -0500)
Pompano Beach | | Change Station

Elev 20 ft 26.25 °N, 80.11 °W | Updated 1 hour ago

Scattered Clouds
Scattered Clouds
78 °F
Feels Like 78 °F
N
14
Wind Variable Wind from SSE

Today
High -- | Low -- °F
--% Chance of Precip.
Yesterday
High -- | Low -- °F
Precip. -- in
Pressure 29.96 in
Visibility 8.0 miles
Clouds Scattered Clouds 1800 ft
Scattered Clouds 3100 ft
Dew Point 73 °F
Humidity 84%
Rainfall 0.00 in
Snow Depth Not available.
6:54 AM 5:28 PM
Waxing Crescent, 37% visible
METAR KPMP 060153Z AUTO 16012KT 8SM SCT018 SCT031 26/23 A2996 RMK AO2 SLP146 T02560228
Pressure 29.96 in
Visibility 8.0 miles
Clouds Scattered Clouds 1800 ft
Scattered Clouds 3100 ft
Dew Point 73 °F
Humidity 84%
Rainfall 0.00 in
Snow Depth Not available.
6:54 AM 5:28 PM
Waxing Crescent, 37% visible
METAR KPMP 060153Z AUTO 16012KT 8SM SCT018 SCT031 26/23 A2996 RMK AO2 SLP146 T02560228

10-Day Weather Forecast

Almanac

Astronomy

Dec. 05, 2016 Rise Set
Actual Time
Civil Twilight
Nautical Twilight
Astronomical Twilight
Moon
Length of Visible Light
Length of Day
Tomorrow will be .
, % of the Moon is Illuminated

Today's Extremes

State Highs State Lows

Community

WunderPhotos

Upload Photos

1,955,908 photos uploaded!

WunderBlog® & News

Nearby

Air Quality

  Air Quality AQ Index Pollutant
Not available.

Snow Depth

Station Depth Elevation

Earthquake Activity

City Distance Mag. Time & Date
Minimum magnitude displayed is 2.5.

Coastal Water Temperatures

Place Temperature

Stations

Nearby Weather Stations

Station Location Temp. Windchill Dew Point Humidity Wind Precip. Elev Updated Type
                   

Watches & Warnings

There are currently no watches in effect.